Lake Luzerne, NY (12846)

8:23 AM EDT on May 03, 2015 (GMT -0400)
Ron Fish Jr | | Change Station
CLOSE
Current Station
Personal Weather Station
Location: Lake Luzerne, NY
Elevation: 709 ft
Nearby Weather Stations

Elev 709 ft 43.35 °N, 73.83 °W | Updated 14 seconds ago

Partly Cloudy
Partly Cloudy
49.6 °F
Feels Like 50 °F
N
0.0
Wind Variable Wind from North
Gusts 0.0 mph

Today
High -- | Low -- °F
--% Chance of Precip.
Yesterday
High -- | Low -- °F
Precip. -- in
5:46 AM 7:59 PM
Full, 100% visible
Pressure 30.05 in
Visibility 10.0 miles
Clouds Mostly Cloudy 10000 ft
Windchill 50 °F
Dew Point 40 °F
Humidity 68%
Rainfall 0.00 in
Snow Depth Not available.
UV 1 out of 12
Pollen 10.70 out of 12
Air Quality Not available.
Flu Activity Widespread
METAR KGFL 031153Z AUTO 17004KT 10SM BKN100 11/06 A3005 RMK AO2 SLP176 T01110056 10111 20050 53017

More Conditions Fewer Conditions

Pressure 30.05 in
Visibility 10.0 miles
Clouds Mostly Cloudy 10000 ft
Windchill 50 °F
Dew Point 40 °F
Humidity 68%
Rainfall 0.00 in
Snow Depth Not available.
UV 1 out of 12
Pollen 10.70 out of 12
Air Quality Not available.
Flu Activity Widespread
METAR KGFL 031153Z AUTO 17004KT 10SM BKN100 11/06 A3005 RMK AO2 SLP176 T01110056 10111 20050 53017

More Conditions Fewer Conditions

Nepal has a long way to go to dig out and rebuild from a devastating earthquake. We have teamed up with several charities and organizations to make contributing to the relief effort as easy as possible.
How you can help: Portlight Strategies | Red Cross

10-Day Weather Forecast

Almanac

Astronomy

May. 03, 2015 Rise Set
Actual Time
Civil Twilight
Nautical Twilight
Astronomical Twilight
Moon
Length of Visible Light
Length of Day
Tomorrow will be .
, % of the Moon is Illuminated

Today's Extremes

State Highs State Lows

Community

WunderPhotos

Upload Photos

1,818,198 photos uploaded!

WunderBlogs® & News

Nearby

Air Quality

  Air Quality AQ Index Pollutant
Not available.

Snow Depth

Station Depth Elevation

Earthquake Activity

City Distance Mag. Time & Date
Minimum magnitude displayed is 2.5.

Coastal Water Temperatures

Place Temperature

Stations

Nearby Weather Stations

Station Location Temp. Windchill Dew Point Humidity Wind Precip. Elev Updated Type